Time;durP1;ratioP1;P1;durP2;ratioP2;P2;SDS_P1;SDS_P2;PMS_P1;PMS_P2;Temp;Humidity;BMP_temperature;BMP_pressure;BME280_temperature;BME280_humidity;BME280_pressure;Samples;Min_cycle;Max_cycle;Signal;HPM_P1;HPM_P2
2022/04/01 00:01:20;;;;;;;8.43;4.67;;;1.50;99.90;;;;;;10437978;28;20421;-83
2022/04/01 00:06:42;;;;;;;7.67;3.80;;;1.50;99.90;;;;;;10437179;28;20202;-78
2022/04/01 00:12:09;;;;;;;5.17;3.10;;;1.40;99.90;;;;;;10438099;28;20189;-78
2022/04/01 00:17:30;;;;;;;5.47;3.53;;;1.30;99.90;;;;;;10438057;28;20241;-75
2022/04/01 00:22:53;;;;;;;6.30;3.50;;;1.40;99.90;;;;;;10423405;28;20198;-81
2022/04/01 00:28:15;;;;;;;9.33;3.63;;;1.20;99.90;;;;;;10437415;28;20209;-78
2022/04/01 00:33:37;;;;;;;8.07;3.80;;;1.30;99.90;;;;;;10437472;28;20201;-76
2022/04/01 00:38:59;;;;;;;9.13;3.93;;;1.20;99.90;;;;;;10421559;28;20225;-76
2022/04/01 00:44:25;;;;;;;4.67;3.03;;;1.30;99.90;;;;;;10436578;28;20431;-75
2022/04/01 00:49:48;;;;;;;5.67;3.47;;;1.30;99.90;;;;;;10436112;28;20205;-82
2022/04/01 00:55:10;;;;;;;6.90;3.50;;;1.30;99.90;;;;;;10426025;28;20254;-76
2022/04/01 01:00:32;;;;;;;6.30;3.50;;;1.40;99.90;;;;;;10396020;28;20218;-81
2022/04/01 01:05:54;;;;;;;9.17;4.37;;;1.30;99.90;;;;;;10395154;28;20275;-81
2022/04/01 01:11:16;;;;;;;9.13;4.13;;;1.30;99.90;;;;;;10435326;28;20371;-82
2022/04/01 01:16:40;;;;;;;6.70;4.53;;;1.20;99.90;;;;;;10412983;28;20410;-81
2022/04/01 01:22:02;;;;;;;9.17;4.90;;;1.20;99.90;;;;;;10450614;28;20202;-78
2022/04/01 01:27:25;;;;;;;10.07;4.37;;;1.20;99.90;;;;;;10435434;28;20195;-76
2022/04/01 01:32:47;;;;;;;8.83;5.10;;;1.20;99.40;;;;;;10435537;28;20201;-81
2022/04/01 01:38:09;;;;;;;8.47;4.17;;;1.10;97.70;;;;;;10437504;28;20229;-76
2022/04/01 01:43:31;;;;;;;7.27;4.60;;;1.20;95.70;;;;;;10429111;28;20508;-76
2022/04/01 01:48:54;;;;;;;11.97;4.53;;;1.20;93.60;;;;;;10443056;28;20502;-77
2022/04/01 01:59:58;;;;;;;11.23;5.87;;;1.20;91.20;;;;;;10405640;28;20248;-77
2022/04/01 02:05:21;;;;;;;10.13;5.13;;;1.20;90.20;;;;;;10428138;28;20217;-82
2022/04/01 02:10:43;;;;;;;8.60;5.13;;;1.10;89.40;;;;;;10442893;28;20206;-81
2022/04/01 02:16:05;;;;;;;8.77;4.47;;;1.10;88.70;;;;;;10441774;28;20444;-76
2022/04/01 02:21:28;;;;;;;8.83;4.30;;;1.10;86.90;;;;;;10457091;28;20226;-77
2022/04/01 02:26:51;;;;;;;8.50;4.53;;;1.10;84.00;;;;;;10441508;28;20225;-77
2022/04/01 02:32:13;;;;;;;9.33;4.97;;;1.10;80.60;;;;;;10441146;28;20194;-76
2022/04/01 02:37:55;;;;;;;9.03;4.97;;;1.10;79.60;;;;;;10440975;28;20222;-79
2022/04/01 02:43:18;;;;;;;9.13;4.77;;;1.10;79.60;;;;;;10440785;28;20202;-76
2022/04/01 02:48:39;;;;;;;9.27;4.63;;;1.00;78.70;;;;;;10426374;28;20272;-76
2022/04/01 02:54:33;;;;;;;7.20;4.30;;;1.00;78.20;;;;;;10435497;28;20317;-78
2022/04/01 02:59:56;;;;;;;6.87;4.20;;;1.00;78.90;;;;;;10402180;28;20217;-75
2022/04/01 03:05:27;;;;;;;9.13;3.53;;;1.00;78.60;;;;;;10427027;28;20198;-76
2022/04/01 03:10:50;;;;;;;7.90;3.80;;;0.90;78.50;;;;;;10425833;28;20196;-76
2022/04/01 03:16:14;;;;;;;7.03;3.63;;;0.90;76.40;;;;;;10413287;28;20253;-78
2022/04/01 03:21:42;;;;;;;9.67;3.60;;;;;;;;;;10454800;28;20205;-81
2022/04/01 03:27:05;;;;;;;6.50;3.30;;;0.80;74.50;;;;;;10425642;28;20202;-77
2022/04/01 03:32:27;;;;;;;10.63;4.17;;;0.80;73.80;;;;;;10424663;28;20192;-82
2022/04/01 03:37:49;;;;;;;5.67;3.03;;;0.90;71.00;;;;;;10439760;28;20290;-76
2022/04/01 03:43:12;;;;;;;7.43;3.60;;;0.80;70.50;;;;;;10438576;28;20224;-77
2022/04/01 03:48:38;;;;;;;10.40;4.70;;;0.80;69.20;;;;;;10438236;28;20220;-75
2022/04/01 03:54:05;;;;;;;11.37;4.43;;;0.80;68.30;;;;;;10422505;28;20232;-76
2022/04/01 03:59:54;;;;;;;12.90;5.40;;;0.80;68.40;;;;;;10404468;28;20226;-80
2022/04/01 04:05:46;;;;;;;42.93;19.40;;;0.80;70.30;;;;;;10446625;28;20228;-77
2022/04/01 04:11:09;;;;;;;31.20;13.83;;;0.80;68.60;;;;;;10425164;28;20201;-81
2022/04/01 04:16:47;;;;;;;9.00;4.00;;;0.80;67.00;;;;;;10398207;28;20276;-77
2022/04/01 04:22:18;;;;;;;9.50;5.60;;;0.70;67.10;;;;;;10465582;28;20216;-80
2022/04/01 04:27:58;;;;;;;9.00;5.93;;;0.70;69.00;;;;;;10425476;28;20231;-80
2022/04/01 04:33:27;;;;;;;19.50;11.30;;;0.80;68.40;;;;;;10436543;28;20356;-80
2022/04/01 04:38:54;;;;;;;16.77;7.43;;;0.70;65.30;;;;;;10422574;28;20251;-83
2022/04/01 04:44:19;;;;;;;10.07;4.30;;;0.80;66.20;;;;;;10436319;28;20226;-80
2022/04/01 04:49:42;;;;;;;17.33;6.77;;;0.60;70.50;;;;;;10436302;28;20228;-76
2022/04/01 04:55:13;;;;;;;17.40;6.57;;;0.70;80.20;;;;;;10426226;28;20317;-76
2022/04/01 05:00:59;;;;;;;47.87;17.47;;;0.70;86.90;;;;;;10409190;28;20232;-77
2022/04/01 05:06:33;;;;;;;77.70;29.03;;;0.80;90.40;;;;;;10436365;28;20200;-83
2022/04/01 05:12:37;;;;;;;48.10;23.17;;;1.00;91.70;;;;;;10437178;28;20505;-77
2022/04/01 05:18:40;;;;;;;46.40;16.00;;;1.10;92.10;;;;;;10446260;28;20278;-76
2022/04/01 05:24:07;;;;;;;31.13;11.73;;;1.30;91.60;;;;;;10390480;28;20611;-77
2022/04/01 05:29:36;;;;;;;40.67;12.67;;;1.40;91.40;;;;;;10400399;28;20206;-78
2022/04/01 05:35:00;;;;;;;19.63;7.20;;;1.40;91.00;;;;;;10369982;28;20231;-79
2022/04/01 05:40:24;;;;;;;17.67;6.07;;;1.50;90.30;;;;;;10387234;28;20402;-82
2022/04/01 05:45:49;;;;;;;18.40;5.33;;;1.60;90.10;;;;;;10393941;28;20201;-80
2022/04/01 05:51:15;;;;;;;21.37;8.27;;;1.70;88.50;;;;;;10404231;28;20199;-77
2022/04/01 05:56:47;;;;;;;23.50;8.40;;;1.80;87.20;;;;;;10389525;28;20261;-80
2022/04/01 06:02:30;;;;;;;20.93;8.47;;;2.00;84.10;;;;;;10429073;28;20206;-75
2022/04/01 06:08:24;;;;;;;38.07;10.53;;;2.10;82.80;;;;;;10428542;28;20200;-78
2022/04/01 06:14:27;;;;;;;24.07;10.07;;;2.20;80.10;;;;;;10443387;28;20202;-76
2022/04/01 06:20:26;;;;;;;15.47;6.07;;;2.40;76.50;;;;;;10316764;28;20618;-81
2022/04/01 06:25:56;;;;;;;11.13;6.07;;;2.50;71.40;;;;;;10304148;28;20197;-83
2022/04/01 06:31:23;;;;;;;9.83;5.90;;;2.70;69.10;;;;;;10289375;28;20309;-82
2022/04/01 06:36:49;;;;;;;11.90;4.20;;;2.80;61.90;;;;;;10303803;28;20305;-76
2022/04/01 06:42:22;;;;;;;16.77;5.57;;;3.00;57.40;;;;;;10303016;28;20222;-76
2022/04/01 06:48:04;;;;;;;8.13;3.57;;;3.40;52.40;;;;;;10305292;28;20246;-82
2022/04/01 06:53:41;;;;;;;13.27;4.90;;;4.30;45.70;;;;;;10341609;28;20212;-81
2022/04/01 06:59:34;;;;;;;11.23;3.53;;;4.80;38.10;;;;;;10415798;28;20225;-77
2022/04/01 07:04:55;;;;;;;16.47;3.73;;;4.90;32.80;;;;;;10434197;28;20202;-78
2022/04/01 07:10:18;;;;;;;12.03;3.17;;;5.20;31.80;;;;;;10422402;28;20481;-78
2022/04/01 07:15:40;;;;;;;16.37;3.20;;;5.60;29.00;;;;;;10436548;28;20220;-76
2022/04/01 07:21:04;;;;;;;16.27;3.50;;;5.90;29.10;;;;;;10397814;28;20233;-82
2022/04/01 07:26:26;;;;;;;29.27;5.13;;;5.90;27.20;;;;;;10408579;28;20230;-79
2022/04/01 07:37:33;;;;;;;48.27;5.73;;;6.20;24.50;;;;;;10429806;28;20290;-78
2022/04/01 07:43:12;;;;;;;76.80;4.73;;;6.40;22.90;;;;;;10433603;28;20189;-77
2022/04/01 07:48:35;;;;;;;13.13;3.33;;;6.50;22.60;;;;;;10433624;28;20233;-76
2022/04/01 07:53:57;;;;;;;10.30;2.80;;;6.60;22.50;;;;;;10436092;28;20250;-79
2022/04/01 07:59:21;;;;;;;29.40;4.80;;;6.90;21.70;;;;;;10432919;28;20279;-76
2022/04/01 08:04:42;;;;;;;14.77;6.23;;;7.00;20.90;;;;;;10433562;28;20205;-78
2022/04/01 08:10:07;;;;;;;20.30;8.53;;;7.60;20.60;;;;;;10396013;28;20505;-80
2022/04/01 08:15:32;;;;;;;10.17;4.97;;;8.00;19.90;;;;;;10431758;28;20199;-80
2022/04/01 08:20:53;;;;;;;23.67;5.40;;;8.10;18.60;;;;;;10444822;28;20235;-76
2022/04/01 08:26:15;;;;;;;44.57;4.50;;;8.50;18.40;;;;;;10431594;28;20506;-77
2022/04/01 08:31:37;;;;;;;10.83;3.67;;;8.80;17.80;;;;;;10431495;28;20492;-83
2022/04/01 08:36:58;;;;;;;20.00;5.30;;;9.00;17.50;;;;;;10418780;28;20289;-80
2022/04/01 08:42:20;;;;;;;11.80;4.20;;;9.40;17.00;;;;;;10435510;28;20518;-84
2022/04/01 08:47:46;;;;;;;16.23;8.30;;;10.20;15.40;;;;;;10435014;28;20189;-80
2022/04/01 08:53:07;;;;;;;18.20;6.60;;;10.90;14.60;;;;;;10432639;28;20203;-81
2022/04/01 08:58:30;;;;;;;9.73;3.83;;;10.60;14.30;;;;;;10430687;28;20243;-80
2022/04/01 09:03:56;;;;;;;12.53;3.53;;;10.50;14.00;;;;;;10436425;28;20271;-81
2022/04/01 09:09:27;;;;;;;11.77;3.20;;;10.70;13.80;;;;;;10450949;28;20196;-80
2022/04/01 09:14:54;;;;;;;20.53;9.53;;;10.80;13.70;;;;;;10433610;28;20203;-75
2022/04/01 09:20:17;;;;;;;10.93;5.57;;;10.60;14.00;;;;;;10432021;28;20283;-76
2022/04/01 09:25:47;;;;;;;23.47;5.57;;;10.50;13.90;;;;;;10393000;28;20196;-79
2022/04/01 09:31:15;;;;;;;13.50;3.67;;;10.30;13.90;;;;;;10412710;28;20425;-75
2022/04/01 09:36:56;;;;;;;8.40;3.23;;;10.40;14.40;;;;;;10432772;28;20396;-82
2022/04/01 09:42:19;;;;;;;13.02;5.43;;;11.20;14.00;;;;;;10431929;28;20201;-76
2022/04/01 09:47:41;;;;;;;15.77;5.80;;;11.10;13.70;;;;;;10432801;28;20488;-76
2022/04/01 09:53:12;;;;;;;18.33;4.77;;;11.10;14.30;;;;;;10430790;28;20215;-77
2022/04/01 09:58:36;;;;;;;14.23;3.50;;;11.10;13.90;;;;;;10424856;28;20234;-86
2022/04/01 10:03:58;;;;;;;8.50;2.57;;;10.80;14.20;;;;;;10437025;28;20196;-77
2022/04/01 10:09:21;;;;;;;11.57;4.13;;;10.50;14.40;;;;;;10423621;28;20506;-77
2022/04/01 10:14:54;;;;;;;7.33;2.47;;;10.80;14.10;;;;;;10411491;28;20211;-80
2022/04/01 10:20:19;;;;;;;7.97;4.10;;;11.00;13.70;;;;;;10439332;28;20234;-77
2022/04/01 10:25:51;;;;;;;18.73;5.93;;;11.20;13.70;;;;;;10434083;28;20454;-76
2022/04/01 10:31:14;;;;;;;9.27;3.13;;;11.50;13.10;;;;;;10438978;28;20254;-77
2022/04/01 10:36:42;;;;;;;8.97;2.53;;;11.40;13.00;;;;;;10397261;28;20201;-77
2022/04/01 10:42:11;;;;;;;14.53;4.23;;;11.10;13.20;;;;;;10394686;28;20216;-78
2022/04/01 10:53:40;;;;;;;6.83;3.43;;;10.40;14.00;;;;;;10435545;28;20423;-82
2022/04/01 10:59:11;;;;;;;30.30;13.80;;;10.90;14.60;;;;;;10437274;28;20284;-86
2022/04/01 11:04:36;;;;;;;48.53;14.07;;;11.60;14.10;;;;;;10427738;28;20442;-78
2022/04/01 11:10:00;;;;;;;7.87;2.80;;;11.60;13.80;;;;;;10437061;28;20238;-81
2022/04/01 11:15:27;;;;;;;5.50;2.43;;;11.50;14.20;;;;;;10436345;28;20262;-81
2022/04/01 11:20:56;;;;;;;22.10;6.60;;;12.00;14.10;;;;;;10443341;28;20250;-82
2022/04/01 11:26:18;;;;;;;25.27;4.20;;;11.60;13.50;;;;;;10436150;28;20253;-79
2022/04/01 11:31:41;;;;;;;12.63;4.23;;;11.50;13.80;;;;;;10431765;28;20545;-90
2022/04/01 11:37:04;;;;;;;30.13;16.03;;;11.70;14.50;;;;;;10463095;28;20511;-84
2022/04/01 11:42:26;;;;;;;15.77;6.80;;;12.20;13.90;;;;;;10450893;28;20270;-88
2022/04/01 11:47:48;;;;;;;20.50;10.23;;;11.70;13.90;;;;;;10435853;28;20536;-79
2022/04/01 11:53:18;;;;;;;29.87;12.77;;;11.30;14.70;;;;;;10435546;28;20362;-84
2022/04/01 11:58:46;;;;;;;13.17;5.20;;;11.00;14.50;;;;;;10353011;28;20250;-77
2022/04/01 12:04:11;;;;;;;4.93;3.10;;;11.00;14.50;;;;;;10367175;28;20223;-83
2022/04/01 12:09:36;;;;;;;10.30;4.40;;;10.70;13.90;;;;;;10334427;28;20208;-85
2022/04/01 12:15:00;;;;;;;13.27;3.27;;;10.90;14.90;;;;;;10363403;28;20207;-80
2022/04/01 12:20:22;;;;;;;9.90;3.67;;;10.70;14.50;;;;;;10348923;28;20534;-80
2022/04/01 12:25:54;;;;;;;8.13;3.07;;;10.50;14.50;;;;;;10348082;28;20219;-86
2022/04/01 12:31:27;;;;;;;13.37;6.40;;;10.20;14.70;;;;;;10374678;28;20205;-79
2022/04/01 12:37:00;;;;;;;8.33;2.17;;;10.20;15.00;;;;;;10366740;28;20200;-78
2022/04/01 12:42:24;;;;;;;21.20;3.57;;;9.80;15.00;;;;;;10375182;28;20215;-82
2022/04/01 12:47:46;;;;;;;52.70;5.20;;;9.90;15.20;;;;;;10375882;28;20214;-85
2022/04/01 12:53:09;;;;;;;5.97;3.60;;;9.50;15.60;;;;;;10356369;28;20246;-77
2022/04/01 12:58:55;;;;;;;10.40;3.10;;;9.60;15.10;;;;;;10456241;28;20244;-77
2022/04/01 13:04:19;;;;;;;10.67;2.97;;;9.60;14.90;;;;;;10449243;28;20549;-76
2022/04/01 13:09:59;;;;;;;13.67;4.13;;;9.30;15.10;;;;;;10442816;28;20203;-86
2022/04/01 13:15:24;;;;;;;14.33;3.83;;;9.40;14.90;;;;;;10430070;28;20205;-79
2022/04/01 13:20:47;;;;;;;10.33;3.80;;;9.70;14.70;;;;;;10429926;28;20304;-80
2022/04/01 13:26:09;;;;;;;8.37;3.50;;;9.60;15.30;;;;;;10442186;28;20392;-76
2022/04/01 13:31:31;;;;;;;7.23;3.67;;;9.10;15.40;;;;;;10467464;28;20213;-81
2022/04/01 13:36:55;;;;;;;9.40;3.63;;;8.70;16.90;;;;;;10448760;28;20241;-78
2022/04/01 13:42:19;;;;;;;9.37;3.67;;;8.60;16.90;;;;;;10444642;28;20474;-76
2022/04/01 13:47:42;;;;;;;4.83;2.67;;;8.20;17.00;;;;;;10427639;28;20213;-81
2022/04/01 13:53:04;;;;;;;25.13;4.50;;;8.00;17.80;;;;;;10437577;28;20217;-77
2022/04/01 13:58:27;;;;;;;4.40;2.20;;;7.80;18.80;;;;;;10429412;28;20250;-77
2022/04/01 14:03:50;;;;;;;9.37;3.03;;;7.70;19.50;;;;;;10468877;28;20198;-80
2022/04/01 14:09:12;;;;;;;15.83;3.20;;;7.30;20.30;;;;;;10447717;28;20204;-76
2022/04/01 14:14:42;;;;;;;3.47;2.33;;;7.00;21.00;;;;;;10425913;28;20205;-84
2022/04/01 14:20:05;;;;;;;19.33;4.50;;;6.60;21.60;;;;;;10438332;28;20217;-78
2022/04/01 14:25:26;;;;;;;9.10;3.73;;;6.40;22.60;;;;;;10409733;28;20209;-82
2022/04/01 14:30:48;;;;;;;7.60;3.77;;;6.30;23.00;;;;;;10415308;28;20243;-84
2022/04/01 14:36:10;;;;;;;18.47;5.27;;;6.10;23.70;;;;;;10431000;28;20506;-77
2022/04/01 14:41:31;;;;;;;11.50;4.27;;;6.10;23.60;;;;;;10457419;28;20238;-81
2022/04/01 14:46:53;;;;;;;26.27;8.83;;;6.10;23.90;;;;;;10438875;28;20275;-78
2022/04/01 14:52:15;;;;;;;15.53;6.43;;;6.10;24.30;;;;;;10454078;28;20209;-82
2022/04/01 14:57:38;;;;;;;9.50;3.27;;;5.90;24.40;;;;;;10442131;28;20311;-81
2022/04/01 15:03:01;;;;;;;10.77;3.43;;;5.70;25.50;;;;;;10447273;28;20247;-84
2022/04/01 15:08:22;;;;;;;8.43;3.03;;;5.60;26.20;;;;;;10415835;28;20574;-81
2022/04/01 15:13:43;;;;;;;6.47;2.70;;;5.60;26.70;;;;;;10442176;28;20196;-78
2022/04/01 15:19:05;;;;;;;10.17;3.73;;;5.40;27.90;;;;;;10448226;28;20227;-80
2022/04/01 15:24:26;;;;;;;9.10;4.90;;;5.20;29.10;;;;;;10426293;28;20203;-84
2022/04/01 15:29:48;;;;;;;9.43;4.63;;;5.10;29.90;;;;;;10425258;28;20203;-88
2022/04/01 15:35:10;;;;;;;10.60;4.00;;;5.00;30.80;;;;;;10439318;28;20238;-84
2022/04/01 15:40:35;;;;;;;6.77;3.60;;;4.90;33.10;;;;;;10438580;28;20225;-78
2022/04/01 15:46:08;;;;;;;13.97;3.53;;;4.70;35.30;;;;;;10438794;28;20196;-77
2022/04/01 15:51:30;;;;;;;8.47;4.23;;;4.70;37.70;;;;;;10438275;28;20541;-78
2022/04/01 15:56:56;;;;;;;8.27;3.97;;;4.50;41.90;;;;;;10418846;28;20262;-88
2022/04/01 16:02:38;;;;;;;5.70;3.30;;;4.30;45.50;;;;;;10439784;28;20250;-82
2022/04/01 16:08:00;;;;;;;9.53;6.13;;;4.20;49.60;;;;;;10438540;28;20257;-84
2022/04/01 16:13:34;;;;;;;4.83;3.10;;;4.20;50.20;;;;;;10439281;28;20198;-84
2022/04/01 16:18:56;;;;;;;11.00;3.90;;;4.00;51.70;;;;;;10444880;28;20288;-83
2022/04/01 16:24:18;;;;;;;20.23;10.07;;;3.80;56.00;;;;;;10439041;28;20192;-87
2022/04/01 16:29:40;;;;;;;24.83;8.73;;;3.80;59.80;;;;;;10439179;28;20203;-88
2022/04/01 16:35:06;;;;;;;18.53;8.73;;;3.80;69.60;;;;;;10437839;28;20342;-80
2022/04/01 16:40:28;;;;;;;12.47;4.50;;;3.70;75.40;;;;;;10437120;28;20329;-82
2022/04/01 16:45:49;;;;;;;7.37;3.47;;;3.70;79.40;;;;;;10438621;28;20191;-85
2022/04/01 16:51:10;;;;;;;18.17;6.93;;;3.50;83.00;;;;;;10436412;28;20435;-79
2022/04/01 16:56:32;;;;;;;11.37;5.87;;;3.40;86.70;;;;;;10436906;28;20537;-83
2022/04/01 17:01:54;;;;;;;20.83;6.47;;;3.40;88.20;;;;;;10422640;28;20253;-80
2022/04/01 17:12:54;;;;;;;19.63;5.60;;;3.30;92.80;;;;;;10437460;28;20386;-80
2022/04/01 17:18:16;;;;;;;15.03;4.93;;;3.10;94.50;;;;;;10426687;28;20209;-80
2022/04/01 17:23:38;;;;;;;21.90;7.97;;;3.10;95.90;;;;;;10437188;28;20206;-87
2022/04/01 17:29:02;;;;;;;30.23;8.07;;;3.00;96.70;;;;;;10436896;28;20202;-86
2022/04/01 17:34:27;;;;;;;16.50;6.00;;;2.90;97.30;;;;;;10436683;28;20206;-79
2022/04/01 17:39:50;;;;;;;17.90;5.63;;;3.00;98.30;;;;;;10436766;28;20309;-88
2022/04/01 17:45:12;;;;;;;14.27;4.47;;;2.90;99.00;;;;;;10436550;28;20601;-88
2022/04/01 17:50:34;;;;;;;11.70;5.33;;;2.80;99.70;;;;;;10436214;28;20207;-85
2022/04/01 17:55:59;;;;;;;17.40;5.80;;;2.70;99.90;;;;;;10442887;28;20216;-80
2022/04/01 18:01:22;;;;;;;8.40;3.90;;;2.70;99.90;;;;;;10423781;28;20205;-79
2022/04/01 18:06:46;;;;;;;10.13;3.70;;;2.60;99.90;;;;;;10396258;28;20217;-80
2022/04/01 18:12:10;;;;;;;18.57;6.53;;;2.50;99.90;;;;;;10394618;28;20202;-78
2022/04/01 18:17:34;;;;;;;10.43;5.40;;;2.50;99.90;;;;;;10396358;28;20398;-80
2022/04/01 18:22:57;;;;;;;19.23;6.57;;;2.50;99.90;;;;;;10443681;28;20206;-77
2022/04/01 18:28:22;;;;;;;12.97;5.47;;;2.40;99.90;;;;;;10451948;28;20195;-82
2022/04/01 18:33:46;;;;;;;17.47;6.60;;;2.40;99.90;;;;;;10442451;28;20215;-78
2022/04/01 18:39:10;;;;;;;9.77;5.13;;;2.40;99.90;;;;;;10442694;28;20257;-88
2022/04/01 18:44:47;;;;;;;15.40;5.93;;;2.40;99.90;;;;;;10443192;28;20186;-78
2022/04/01 18:50:11;;;;;;;33.20;13.73;;;2.40;99.90;;;;;;10441022;28;20186;-88
2022/04/01 18:55:34;;;;;;;24.63;8.13;;;2.30;99.90;;;;;;10426972;28;20308;-79
2022/04/01 19:00:59;;;;;;;17.30;5.90;;;2.30;99.90;;;;;;10399470;28;20226;-79
2022/04/01 19:06:37;;;;;;;16.63;5.93;;;2.40;99.90;;;;;;10410429;28;20269;-80
2022/04/01 19:12:08;;;;;;;16.97;5.40;;;2.40;99.90;;;;;;10425895;28;20195;-88
2022/04/01 19:17:37;;;;;;;11.83;4.90;;;2.40;99.90;;;;;;10439842;28;20195;-78
2022/04/01 19:22:58;;;;;;;13.17;5.00;;;2.40;99.90;;;;;;10400109;28;20215;-78
2022/04/01 19:28:20;;;;;;;18.40;7.40;;;2.40;99.90;;;;;;10439872;28;20215;-79
2022/04/01 19:33:41;;;;;;;15.83;5.10;;;2.50;99.90;;;;;;10439882;28;20198;-79
2022/04/01 19:39:03;;;;;;;23.73;6.60;;;2.40;99.90;;;;;;10439870;28;20309;-77
2022/04/01 19:44:26;;;;;;;11.07;5.03;;;2.30;99.90;;;;;;10438898;28;20193;-79
2022/04/01 19:49:47;;;;;;;17.20;5.57;;;2.30;99.90;;;;;;10438988;28;20225;-77
2022/04/01 19:55:09;;;;;;;11.60;4.13;;;2.30;99.90;;;;;;10439145;28;20249;-87
2022/04/01 20:00:30;;;;;;;9.37;4.77;;;2.30;99.90;;;;;;10400598;28;20230;-83
2022/04/01 20:05:52;;;;;;;13.87;4.97;;;2.20;99.90;;;;;;10451599;28;20218;-79
2022/04/01 20:11:13;;;;;;;22.20;6.97;;;2.20;99.90;;;;;;10439159;28;20221;-78
2022/04/01 20:16:37;;;;;;;11.47;4.47;;;2.20;99.90;;;;;;10438303;28;20196;-80
2022/04/01 20:21:59;;;;;;;14.67;5.43;;;2.20;99.90;;;;;;10449743;28;20225;-86
2022/04/01 20:27:22;;;;;;;20.93;6.10;;;2.20;99.90;;;;;;10438488;28;20235;-78
2022/04/01 20:32:44;;;;;;;13.10;4.43;;;2.10;99.90;;;;;;10428616;28;20278;-78
2022/04/01 20:38:05;;;;;;;15.27;6.00;;;2.10;99.90;;;;;;10422976;28;20198;-86
2022/04/01 20:43:27;;;;;;;12.83;4.93;;;2.10;99.90;;;;;;10422604;28;20213;-89
2022/04/01 20:48:48;;;;;;;21.60;6.50;;;2.20;99.90;;;;;;10435645;28;20189;-78
2022/04/01 20:54:09;;;;;;;16.97;6.00;;;2.20;99.90;;;;;;10436086;28;20408;-84
2022/04/01 20:59:31;;;;;;;13.37;4.93;;;2.10;99.90;;;;;;10440515;28;20313;-83
2022/04/01 21:04:52;;;;;;;32.10;13.90;;;2.10;99.90;;;;;;10427778;28;20265;-79
2022/04/01 21:10:13;;;;;;;18.50;7.60;;;2.10;99.90;;;;;;10441388;28;20221;-79
2022/04/01 21:15:35;;;;;;;10.57;5.47;;;2.20;99.90;;;;;;10424798;28;20213;-77
2022/04/01 21:20:56;;;;;;;30.73;11.93;;;2.20;99.90;;;;;;10467874;28;20746;-81
2022/04/01 21:32:01;;;;;;;26.83;11.33;;;2.10;99.90;;;;;;10437760;28;20194;-89
2022/04/01 21:37:25;;;;;;;11.83;4.80;;;2.00;99.90;;;;;;10436285;28;20228;-79
2022/04/01 21:42:47;;;;;;;9.90;5.53;;;2.00;99.90;;;;;;10431288;28;20221;-80
2022/04/01 21:48:08;;;;;;;19.17;7.23;;;2.00;99.90;;;;;;10438084;28;20386;-88
2022/04/01 21:53:29;;;;;;;14.10;4.33;;;1.90;99.90;;;;;;10425373;28;20213;-82
2022/04/01 21:58:50;;;;;;;10.37;3.83;;;2.00;99.90;;;;;;10424423;28;20227;-88
2022/04/01 22:04:18;;;;;;;8.97;4.17;;;2.00;99.90;;;;;;10407128;28;20213;-79
2022/04/01 22:09:39;;;;;;;13.53;4.50;;;2.00;99.90;;;;;;10443394;28;20195;-77
2022/04/01 22:15:01;;;;;;;14.20;4.80;;;2.00;99.90;;;;;;10429402;28;20507;-78
2022/04/01 22:20:22;;;;;;;12.13;4.37;;;2.00;99.90;;;;;;10465816;28;20225;-88
2022/04/01 22:25:43;;;;;;;10.17;4.40;;;2.10;99.90;;;;;;10484735;28;20194;-80
2022/04/01 22:31:05;;;;;;;10.70;4.33;;;2.00;99.90;;;;;;10483823;28;20201;-79
2022/04/01 22:36:26;;;;;;;20.73;5.60;;;1.90;99.90;;;;;;10483593;28;20189;-86
2022/04/01 22:41:48;;;;;;;12.73;5.00;;;1.90;99.90;;;;;;10458307;28;20384;-78
2022/04/01 22:47:09;;;;;;;16.47;4.73;;;1.90;99.90;;;;;;10443361;28;20258;-77
2022/04/01 22:52:31;;;;;;;14.63;4.83;;;1.80;99.90;;;;;;10445023;28;20198;-77
2022/04/01 22:57:52;;;;;;;15.10;6.23;;;1.80;99.90;;;;;;10440544;28;20263;-79
2022/04/01 23:03:14;;;;;;;10.43;4.10;;;1.70;99.10;;;;;;10403259;28;20227;-79
2022/04/01 23:08:35;;;;;;;8.63;4.07;;;1.70;98.10;;;;;;10401865;28;20190;-78
2022/04/01 23:13:57;;;;;;;6.80;3.07;;;1.70;96.60;;;;;;10413326;28;20198;-79
2022/04/01 23:19:22;;;;;;;9.90;3.10;;;1.70;94.80;;;;;;10454734;28;20516;-78
2022/04/01 23:24:43;;;;;;;9.27;3.33;;;1.70;92.90;;;;;;10481676;28;20198;-83
2022/04/01 23:30:05;;;;;;;10.27;5.37;;;1.70;92.90;;;;;;10467317;28;20387;-79
2022/04/01 23:35:26;;;;;;;14.60;6.23;;;1.70;92.70;;;;;;10484798;28;20196;-86
2022/04/01 23:40:47;;;;;;;10.43;4.53;;;1.70;92.80;;;;;;10455598;28;20217;-81
2022/04/01 23:46:09;;;;;;;11.50;5.23;;;1.60;93.40;;;;;;10425788;28;20492;-88
2022/04/01 23:51:32;;;;;;;11.03;4.07;;;1.60;94.70;;;;;;10425248;28;20211;-83
2022/04/01 23:56:53;;;;;;;8.40;3.40;;;1.60;94.90;;;;;;10438370;28;20246;-77
